sensor_id;sensor_type;location;lat;lon;timestamp;P1;durP1;ratioP1;P2;durP2;ratioP2
75021;SDS011;63583;49.976;20.182;2023-02-28T00:00:20;8.70;;;3.22;;
75021;SDS011;63583;49.976;20.182;2023-02-28T00:03:07;7.20;;;4.00;;
75021;SDS011;63583;49.976;20.182;2023-02-28T00:05:33;7.38;;;3.60;;
75021;SDS011;63583;49.976;20.182;2023-02-28T00:07:58;8.00;;;3.13;;
75021;SDS011;63583;49.976;20.182;2023-02-28T00:10:25;10.02;;;4.53;;
75021;SDS011;63583;49.976;20.182;2023-02-28T00:12:53;17.58;;;5.07;;
75021;SDS011;63583;49.976;20.182;2023-02-28T00:15:22;8.40;;;4.05;;
75021;SDS011;63583;49.976;20.182;2023-02-28T00:17:49;8.80;;;3.80;;
75021;SDS011;63583;49.976;20.182;2023-02-28T00:20:15;13.40;;;4.45;;
75021;SDS011;63583;49.976;20.182;2023-02-28T00:22:42;7.70;;;3.58;;
75021;SDS011;63583;49.976;20.182;2023-02-28T00:25:16;10.00;;;3.92;;
75021;SDS011;63583;49.976;20.182;2023-02-28T00:27:44;10.68;;;4.53;;
75021;SDS011;63583;49.976;20.182;2023-02-28T00:30:12;8.25;;;4.53;;
75021;SDS011;63583;49.976;20.182;2023-02-28T00:32:39;6.88;;;3.97;;
75021;SDS011;63583;49.976;20.182;2023-02-28T00:35:05;6.05;;;3.45;;
75021;SDS011;63583;49.976;20.182;2023-02-28T00:37:32;6.55;;;3.58;;
75021;SDS011;63583;49.976;20.182;2023-02-28T00:39:58;9.02;;;3.45;;
75021;SDS011;63583;49.976;20.182;2023-02-28T00:42:24;8.13;;;4.40;;
75021;SDS011;63583;49.976;20.182;2023-02-28T00:44:50;14.60;;;4.53;;
75021;SDS011;63583;49.976;20.182;2023-02-28T00:47:15;7.75;;;3.58;;
75021;SDS011;63583;49.976;20.182;2023-02-28T00:49:42;8.90;;;4.70;;
75021;SDS011;63583;49.976;20.182;2023-02-28T00:52:07;7.35;;;3.92;;
75021;SDS011;63583;49.976;20.182;2023-02-28T00:54:33;10.80;;;4.45;;
75021;SDS011;63583;49.976;20.182;2023-02-28T00:56:59;5.43;;;3.75;;
75021;SDS011;63583;49.976;20.182;2023-02-28T00:59:25;7.55;;;4.53;;
75021;SDS011;63583;49.976;20.182;2023-02-28T01:01:50;7.38;;;3.65;;
75021;SDS011;63583;49.976;20.182;2023-02-28T01:04:16;7.93;;;3.53;;
75021;SDS011;63583;49.976;20.182;2023-02-28T01:06:42;6.65;;;3.72;;
75021;SDS011;63583;49.976;20.182;2023-02-28T01:09:08;8.55;;;3.58;;
75021;SDS011;63583;49.976;20.182;2023-02-28T01:11:34;5.25;;;2.88;;
75021;SDS011;63583;49.976;20.182;2023-02-28T01:14:00;7.38;;;3.80;;
75021;SDS011;63583;49.976;20.182;2023-02-28T01:16:26;4.80;;;2.38;;
75021;SDS011;63583;49.976;20.182;2023-02-28T01:18:52;6.75;;;3.58;;
75021;SDS011;63583;49.976;20.182;2023-02-28T01:21:18;6.95;;;3.97;;
75021;SDS011;63583;49.976;20.182;2023-02-28T01:23:46;7.43;;;3.85;;
75021;SDS011;63583;49.976;20.182;2023-02-28T01:26:14;15.50;;;5.55;;
75021;SDS011;63583;49.976;20.182;2023-02-28T01:28:41;12.32;;;6.43;;
75021;SDS011;63583;49.976;20.182;2023-02-28T01:31:08;16.52;;;6.40;;
75021;SDS011;63583;49.976;20.182;2023-02-28T01:33:35;10.45;;;5.13;;
75021;SDS011;63583;49.976;20.182;2023-02-28T01:36:02;9.30;;;5.80;;
75021;SDS011;63583;49.976;20.182;2023-02-28T01:38:29;6.63;;;4.15;;
75021;SDS011;63583;49.976;20.182;2023-02-28T01:40:55;9.25;;;3.88;;
75021;SDS011;63583;49.976;20.182;2023-02-28T01:43:22;5.35;;;3.58;;
75021;SDS011;63583;49.976;20.182;2023-02-28T01:45:50;10.20;;;4.45;;
75021;SDS011;63583;49.976;20.182;2023-02-28T01:48:16;5.43;;;3.15;;
75021;SDS011;63583;49.976;20.182;2023-02-28T01:50:44;11.45;;;4.32;;
75021;SDS011;63583;49.976;20.182;2023-02-28T01:53:13;8.32;;;3.17;;
75021;SDS011;63583;49.976;20.182;2023-02-28T01:55:45;6.40;;;3.05;;
75021;SDS011;63583;49.976;20.182;2023-02-28T01:58:13;4.60;;;2.53;;
75021;SDS011;63583;49.976;20.182;2023-02-28T02:00:40;8.18;;;3.75;;
75021;SDS011;63583;49.976;20.182;2023-02-28T02:03:08;6.88;;;2.78;;
75021;SDS011;63583;49.976;20.182;2023-02-28T02:05:38;6.03;;;3.35;;
75021;SDS011;63583;49.976;20.182;2023-02-28T02:08:10;7.93;;;3.97;;
75021;SDS011;63583;49.976;20.182;2023-02-28T02:10:41;6.97;;;3.58;;
75021;SDS011;63583;49.976;20.182;2023-02-28T02:16:12;6.13;;;2.75;;
75021;SDS011;63583;49.976;20.182;2023-02-28T02:25:09;6.68;;;3.72;;
75021;SDS011;63583;49.976;20.182;2023-02-28T02:30:07;7.85;;;3.75;;
75021;SDS011;63583;49.976;20.182;2023-02-28T02:43:56;7.35;;;6.22;;
75021;SDS011;63583;49.976;20.182;2023-02-28T02:46:38;5.18;;;3.92;;
75021;SDS011;63583;49.976;20.182;2023-02-28T02:49:08;5.25;;;3.30;;
75021;SDS011;63583;49.976;20.182;2023-02-28T02:51:38;16.15;;;3.80;;
75021;SDS011;63583;49.976;20.182;2023-02-28T02:54:10;6.35;;;2.63;;
75021;SDS011;63583;49.976;20.182;2023-02-28T02:56:41;4.68;;;3.05;;
75021;SDS011;63583;49.976;20.182;2023-02-28T02:59:11;6.95;;;3.45;;
75021;SDS011;63583;49.976;20.182;2023-02-28T03:01:39;7.55;;;3.95;;
75021;SDS011;63583;49.976;20.182;2023-02-28T03:04:09;6.13;;;3.28;;
75021;SDS011;63583;49.976;20.182;2023-02-28T03:06:37;8.00;;;3.17;;
75021;SDS011;63583;49.976;20.182;2023-02-28T03:09:03;6.30;;;3.45;;
75021;SDS011;63583;49.976;20.182;2023-02-28T03:11:30;8.20;;;3.13;;
75021;SDS011;63583;49.976;20.182;2023-02-28T03:14:03;8.52;;;4.32;;
75021;SDS011;63583;49.976;20.182;2023-02-28T03:16:49;10.98;;;4.55;;
75021;SDS011;63583;49.976;20.182;2023-02-28T03:30:46;7.20;;;3.17;;
75021;SDS011;63583;49.976;20.182;2023-02-28T03:33:33;9.68;;;3.80;;
75021;SDS011;63583;49.976;20.182;2023-02-28T03:36:06;6.50;;;2.75;;
75021;SDS011;63583;49.976;20.182;2023-02-28T03:38:38;10.10;;;3.13;;
75021;SDS011;63583;49.976;20.182;2023-02-28T03:41:14;3.42;;;2.35;;
75021;SDS011;63583;49.976;20.182;2023-02-28T03:43:44;8.88;;;4.13;;
75021;SDS011;63583;49.976;20.182;2023-02-28T03:46:16;5.00;;;2.88;;
75021;SDS011;63583;49.976;20.182;2023-02-28T03:48:49;7.20;;;3.85;;
75021;SDS011;63583;49.976;20.182;2023-02-28T03:51:20;6.82;;;3.17;;
75021;SDS011;63583;49.976;20.182;2023-02-28T03:53:56;3.47;;;2.42;;
75021;SDS011;63583;49.976;20.182;2023-02-28T04:01:27;6.38;;;3.20;;
75021;SDS011;63583;49.976;20.182;2023-02-28T04:03:58;6.18;;;2.30;;
75021;SDS011;63583;49.976;20.182;2023-02-28T04:06:24;7.90;;;3.00;;
75021;SDS011;63583;49.976;20.182;2023-02-28T04:08:50;8.80;;;2.40;;
75021;SDS011;63583;49.976;20.182;2023-02-28T04:11:18;4.38;;;3.65;;
75021;SDS011;63583;49.976;20.182;2023-02-28T04:13:47;6.32;;;3.30;;
75021;SDS011;63583;49.976;20.182;2023-02-28T04:16:13;5.13;;;3.17;;
75021;SDS011;63583;49.976;20.182;2023-02-28T04:18:39;8.23;;;4.10;;
75021;SDS011;63583;49.976;20.182;2023-02-28T04:21:06;7.15;;;2.83;;
75021;SDS011;63583;49.976;20.182;2023-02-28T04:23:32;8.02;;;2.92;;
75021;SDS011;63583;49.976;20.182;2023-02-28T04:25:58;7.18;;;3.53;;
75021;SDS011;63583;49.976;20.182;2023-02-28T04:28:24;7.22;;;3.20;;
75021;SDS011;63583;49.976;20.182;2023-02-28T04:30:57;5.97;;;3.03;;
75021;SDS011;63583;49.976;20.182;2023-02-28T04:33:24;8.18;;;2.67;;
75021;SDS011;63583;49.976;20.182;2023-02-28T04:36:03;11.95;;;2.83;;
75021;SDS011;63583;49.976;20.182;2023-02-28T04:38:34;8.05;;;3.95;;
75021;SDS011;63583;49.976;20.182;2023-02-28T04:41:01;4.10;;;2.08;;
75021;SDS011;63583;49.976;20.182;2023-02-28T04:43:31;10.00;;;4.13;;
75021;SDS011;63583;49.976;20.182;2023-02-28T04:45:58;5.63;;;2.80;;
75021;SDS011;63583;49.976;20.182;2023-02-28T04:48:31;6.85;;;3.78;;
75021;SDS011;63583;49.976;20.182;2023-02-28T04:51:02;8.70;;;2.88;;
75021;SDS011;63583;49.976;20.182;2023-02-28T04:53:29;8.20;;;3.55;;
75021;SDS011;63583;49.976;20.182;2023-02-28T04:55:55;6.10;;;3.20;;
75021;SDS011;63583;49.976;20.182;2023-02-28T04:58:22;7.75;;;3.72;;
75021;SDS011;63583;49.976;20.182;2023-02-28T05:00:49;7.80;;;4.05;;
75021;SDS011;63583;49.976;20.182;2023-02-28T05:03:18;6.50;;;3.25;;
75021;SDS011;63583;49.976;20.182;2023-02-28T05:05:46;6.20;;;3.03;;
75021;SDS011;63583;49.976;20.182;2023-02-28T05:08:12;10.60;;;4.07;;
75021;SDS011;63583;49.976;20.182;2023-02-28T05:10:38;4.05;;;3.22;;
75021;SDS011;63583;49.976;20.182;2023-02-28T05:13:03;4.80;;;3.05;;
75021;SDS011;63583;49.976;20.182;2023-02-28T05:15:29;14.10;;;3.65;;
75021;SDS011;63583;49.976;20.182;2023-02-28T05:17:55;8.98;;;4.30;;
75021;SDS011;63583;49.976;20.182;2023-02-28T05:20:20;6.22;;;4.30;;
75021;SDS011;63583;49.976;20.182;2023-02-28T05:22:46;7.97;;;3.83;;
75021;SDS011;63583;49.976;20.182;2023-02-28T05:25:16;11.70;;;3.95;;
75021;SDS011;63583;49.976;20.182;2023-02-28T05:27:43;4.90;;;3.17;;
75021;SDS011;63583;49.976;20.182;2023-02-28T05:30:09;12.18;;;3.88;;
75021;SDS011;63583;49.976;20.182;2023-02-28T05:32:39;6.90;;;4.13;;
75021;SDS011;63583;49.976;20.182;2023-02-28T05:35:08;6.18;;;3.50;;
75021;SDS011;63583;49.976;20.182;2023-02-28T05:37:38;8.82;;;3.88;;
75021;SDS011;63583;49.976;20.182;2023-02-28T05:40:05;7.38;;;3.75;;
75021;SDS011;63583;49.976;20.182;2023-02-28T05:42:32;7.65;;;2.90;;
75021;SDS011;63583;49.976;20.182;2023-02-28T05:44:58;9.35;;;3.88;;
75021;SDS011;63583;49.976;20.182;2023-02-28T05:47:24;12.27;;;4.32;;
75021;SDS011;63583;49.976;20.182;2023-02-28T05:49:50;8.45;;;4.32;;
75021;SDS011;63583;49.976;20.182;2023-02-28T05:52:16;9.02;;;3.97;;
75021;SDS011;63583;49.976;20.182;2023-02-28T05:54:41;8.63;;;4.85;;
75021;SDS011;63583;49.976;20.182;2023-02-28T05:57:07;12.63;;;4.45;;
75021;SDS011;63583;49.976;20.182;2023-02-28T05:59:33;7.25;;;4.70;;
75021;SDS011;63583;49.976;20.182;2023-02-28T06:01:59;11.50;;;3.45;;
75021;SDS011;63583;49.976;20.182;2023-02-28T06:04:24;8.65;;;4.13;;
75021;SDS011;63583;49.976;20.182;2023-02-28T06:06:50;10.98;;;5.03;;
75021;SDS011;63583;49.976;20.182;2023-02-28T06:09:16;12.40;;;4.05;;
75021;SDS011;63583;49.976;20.182;2023-02-28T06:11:43;10.48;;;4.78;;
75021;SDS011;63583;49.976;20.182;2023-02-28T06:14:16;6.30;;;5.13;;
75021;SDS011;63583;49.976;20.182;2023-02-28T06:16:44;6.82;;;3.83;;
75021;SDS011;63583;49.976;20.182;2023-02-28T06:19:10;8.57;;;4.63;;
75021;SDS011;63583;49.976;20.182;2023-02-28T06:21:36;8.55;;;4.18;;
75021;SDS011;63583;49.976;20.182;2023-02-28T06:24:02;10.13;;;4.43;;
75021;SDS011;63583;49.976;20.182;2023-02-28T06:26:29;7.32;;;5.75;;
75021;SDS011;63583;49.976;20.182;2023-02-28T06:28:55;7.85;;;3.63;;
75021;SDS011;63583;49.976;20.182;2023-02-28T06:31:22;8.43;;;3.78;;
75021;SDS011;63583;49.976;20.182;2023-02-28T06:33:48;14.05;;;4.20;;
75021;SDS011;63583;49.976;20.182;2023-02-28T06:36:15;11.30;;;3.78;;
75021;SDS011;63583;49.976;20.182;2023-02-28T06:38:41;8.40;;;4.63;;
75021;SDS011;63583;49.976;20.182;2023-02-28T06:41:08;10.20;;;4.65;;
75021;SDS011;63583;49.976;20.182;2023-02-28T06:43:36;7.72;;;5.25;;
75021;SDS011;63583;49.976;20.182;2023-02-28T06:46:05;9.88;;;4.53;;
75021;SDS011;63583;49.976;20.182;2023-02-28T06:48:32;8.60;;;4.95;;
75021;SDS011;63583;49.976;20.182;2023-02-28T06:51:02;6.30;;;3.60;;
75021;SDS011;63583;49.976;20.182;2023-02-28T06:53:28;7.18;;;3.80;;
75021;SDS011;63583;49.976;20.182;2023-02-28T06:55:54;6.40;;;2.65;;
75021;SDS011;63583;49.976;20.182;2023-02-28T06:58:19;4.40;;;3.38;;
75021;SDS011;63583;49.976;20.182;2023-02-28T07:00:45;5.88;;;3.13;;
75021;SDS011;63583;49.976;20.182;2023-02-28T07:03:15;4.93;;;3.53;;
75021;SDS011;63583;49.976;20.182;2023-02-28T07:05:41;5.07;;;2.45;;
75021;SDS011;63583;49.976;20.182;2023-02-28T07:08:07;2.45;;;2.22;;
75021;SDS011;63583;49.976;20.182;2023-02-28T07:10:33;4.40;;;3.35;;
75021;SDS011;63583;49.976;20.182;2023-02-28T07:12:59;5.75;;;3.33;;
75021;SDS011;63583;49.976;20.182;2023-02-28T07:15:25;8.52;;;3.85;;
75021;SDS011;63583;49.976;20.182;2023-02-28T07:17:51;9.82;;;3.63;;
75021;SDS011;63583;49.976;20.182;2023-02-28T07:20:17;5.07;;;3.13;;
75021;SDS011;63583;49.976;20.182;2023-02-28T07:22:43;4.63;;;2.45;;
75021;SDS011;63583;49.976;20.182;2023-02-28T07:25:09;5.50;;;2.63;;
75021;SDS011;63583;49.976;20.182;2023-02-28T07:27:35;9.18;;;2.88;;
75021;SDS011;63583;49.976;20.182;2023-02-28T07:30:01;8.00;;;3.60;;
75021;SDS011;63583;49.976;20.182;2023-02-28T07:32:29;4.05;;;3.05;;
75021;SDS011;63583;49.976;20.182;2023-02-28T07:34:55;3.65;;;2.03;;
75021;SDS011;63583;49.976;20.182;2023-02-28T07:37:20;5.50;;;2.83;;
75021;SDS011;63583;49.976;20.182;2023-02-28T07:39:46;8.07;;;2.80;;
75021;SDS011;63583;49.976;20.182;2023-02-28T07:42:12;5.15;;;2.47;;
75021;SDS011;63583;49.976;20.182;2023-02-28T07:44:38;6.90;;;3.22;;
75021;SDS011;63583;49.976;20.182;2023-02-28T07:47:09;3.95;;;2.33;;
75021;SDS011;63583;49.976;20.182;2023-02-28T07:49:38;9.77;;;3.95;;
75021;SDS011;63583;49.976;20.182;2023-02-28T07:52:04;8.75;;;2.78;;
75021;SDS011;63583;49.976;20.182;2023-02-28T07:54:31;6.10;;;2.92;;
75021;SDS011;63583;49.976;20.182;2023-02-28T07:56:57;2.58;;;1.50;;
75021;SDS011;63583;49.976;20.182;2023-02-28T07:59:23;5.13;;;3.00;;
75021;SDS011;63583;49.976;20.182;2023-02-28T08:01:49;4.68;;;2.90;;
75021;SDS011;63583;49.976;20.182;2023-02-28T08:04:16;5.05;;;2.45;;
75021;SDS011;63583;49.976;20.182;2023-02-28T08:06:43;7.25;;;2.70;;
75021;SDS011;63583;49.976;20.182;2023-02-28T08:09:09;4.03;;;2.17;;
75021;SDS011;63583;49.976;20.182;2023-02-28T08:11:34;5.10;;;2.45;;
75021;SDS011;63583;49.976;20.182;2023-02-28T08:14:00;6.32;;;2.50;;
75021;SDS011;63583;49.976;20.182;2023-02-28T08:16:26;6.75;;;4.22;;
75021;SDS011;63583;49.976;20.182;2023-02-28T08:18:52;5.30;;;2.97;;
75021;SDS011;63583;49.976;20.182;2023-02-28T08:21:18;5.78;;;3.55;;
75021;SDS011;63583;49.976;20.182;2023-02-28T08:23:48;6.32;;;2.50;;
75021;SDS011;63583;49.976;20.182;2023-02-28T08:26:15;3.20;;;1.70;;
75021;SDS011;63583;49.976;20.182;2023-02-28T08:28:42;7.78;;;1.95;;
75021;SDS011;63583;49.976;20.182;2023-02-28T08:31:11;6.43;;;1.98;;
75021;SDS011;63583;49.976;20.182;2023-02-28T08:33:39;5.82;;;2.33;;
75021;SDS011;63583;49.976;20.182;2023-02-28T08:36:05;5.10;;;2.67;;
75021;SDS011;63583;49.976;20.182;2023-02-28T08:38:32;5.00;;;1.80;;
75021;SDS011;63583;49.976;20.182;2023-02-28T08:40:58;3.58;;;2.05;;
75021;SDS011;63583;49.976;20.182;2023-02-28T08:43:25;2.03;;;1.38;;
75021;SDS011;63583;49.976;20.182;2023-02-28T08:45:52;6.35;;;2.22;;
75021;SDS011;63583;49.976;20.182;2023-02-28T08:48:18;4.78;;;2.55;;
75021;SDS011;63583;49.976;20.182;2023-02-28T08:50:43;4.82;;;2.97;;
75021;SDS011;63583;49.976;20.182;2023-02-28T08:53:09;5.78;;;2.08;;
75021;SDS011;63583;49.976;20.182;2023-02-28T08:55:35;5.13;;;2.63;;
75021;SDS011;63583;49.976;20.182;2023-02-28T08:58:01;4.47;;;2.85;;
75021;SDS011;63583;49.976;20.182;2023-02-28T09:00:27;6.35;;;3.20;;
75021;SDS011;63583;49.976;20.182;2023-02-28T09:02:54;3.67;;;2.70;;
75021;SDS011;63583;49.976;20.182;2023-02-28T09:05:21;3.97;;;2.22;;
75021;SDS011;63583;49.976;20.182;2023-02-28T09:07:47;5.75;;;2.58;;
75021;SDS011;63583;49.976;20.182;2023-02-28T09:10:13;4.57;;;2.38;;
75021;SDS011;63583;49.976;20.182;2023-02-28T09:12:39;4.32;;;2.85;;
75021;SDS011;63583;49.976;20.182;2023-02-28T09:15:04;8.63;;;3.85;;
75021;SDS011;63583;49.976;20.182;2023-02-28T09:17:31;5.22;;;3.03;;
75021;SDS011;63583;49.976;20.182;2023-02-28T09:19:56;3.42;;;2.80;;
75021;SDS011;63583;49.976;20.182;2023-02-28T09:22:22;6.03;;;3.40;;
75021;SDS011;63583;49.976;20.182;2023-02-28T09:24:48;6.03;;;2.97;;
75021;SDS011;63583;49.976;20.182;2023-02-28T09:27:14;8.18;;;3.63;;
75021;SDS011;63583;49.976;20.182;2023-02-28T09:29:39;5.22;;;2.67;;
75021;SDS011;63583;49.976;20.182;2023-02-28T09:32:05;6.13;;;2.60;;
75021;SDS011;63583;49.976;20.182;2023-02-28T09:34:31;4.43;;;1.27;;
75021;SDS011;63583;49.976;20.182;2023-02-28T09:36:57;8.13;;;3.83;;
75021;SDS011;63583;49.976;20.182;2023-02-28T09:39:23;5.78;;;3.03;;
75021;SDS011;63583;49.976;20.182;2023-02-28T09:41:52;6.18;;;4.05;;
75021;SDS011;63583;49.976;20.182;2023-02-28T09:46:50;5.95;;;2.40;;
75021;SDS011;63583;49.976;20.182;2023-02-28T09:49:19;4.85;;;3.13;;
75021;SDS011;63583;49.976;20.182;2023-02-28T09:51:50;4.63;;;2.00;;
75021;SDS011;63583;49.976;20.182;2023-02-28T09:54:21;8.57;;;3.47;;
75021;SDS011;63583;49.976;20.182;2023-02-28T09:59:36;5.43;;;2.55;;
75021;SDS011;63583;49.976;20.182;2023-02-28T10:02:17;4.90;;;2.50;;
75021;SDS011;63583;49.976;20.182;2023-02-28T10:04:56;5.30;;;2.13;;
75021;SDS011;63583;49.976;20.182;2023-02-28T10:07:36;1.77;;;1.63;;
75021;SDS011;63583;49.976;20.182;2023-02-28T10:10:20;7.55;;;3.00;;
75021;SDS011;63583;49.976;20.182;2023-02-28T10:12:49;4.80;;;2.47;;
75021;SDS011;63583;49.976;20.182;2023-02-28T10:15:19;4.25;;;2.65;;
75021;SDS011;63583;49.976;20.182;2023-02-28T10:17:49;4.65;;;2.72;;
75021;SDS011;63583;49.976;20.182;2023-02-28T10:20:20;10.15;;;3.83;;
75021;SDS011;63583;49.976;20.182;2023-02-28T10:23:02;8.05;;;2.40;;
75021;SDS011;63583;49.976;20.182;2023-02-28T10:25:34;6.90;;;3.55;;
75021;SDS011;63583;49.976;20.182;2023-02-28T10:28:20;7.30;;;3.97;;
75021;SDS011;63583;49.976;20.182;2023-02-28T10:30:47;6.88;;;3.17;;
75021;SDS011;63583;49.976;20.182;2023-02-28T10:33:19;6.80;;;2.90;;
75021;SDS011;63583;49.976;20.182;2023-02-28T10:35:59;5.22;;;3.10;;
75021;SDS011;63583;49.976;20.182;2023-02-28T10:38:27;4.78;;;2.50;;
75021;SDS011;63583;49.976;20.182;2023-02-28T10:41:04;4.22;;;3.13;;
75021;SDS011;63583;49.976;20.182;2023-02-28T10:43:32;5.50;;;2.45;;
75021;SDS011;63583;49.976;20.182;2023-02-28T10:45:59;5.60;;;2.40;;
75021;SDS011;63583;49.976;20.182;2023-02-28T10:51:03;7.05;;;2.53;;
75021;SDS011;63583;49.976;20.182;2023-02-28T10:53:34;3.28;;;1.90;;
75021;SDS011;63583;49.976;20.182;2023-02-28T11:03:55;3.47;;;2.00;;
75021;SDS011;63583;49.976;20.182;2023-02-28T11:06:26;6.45;;;2.80;;
75021;SDS011;63583;49.976;20.182;2023-02-28T11:09:04;5.00;;;2.70;;
75021;SDS011;63583;49.976;20.182;2023-02-28T11:11:42;3.13;;;2.15;;
75021;SDS011;63583;49.976;20.182;2023-02-28T11:17:23;3.47;;;2.10;;
75021;SDS011;63583;49.976;20.182;2023-02-28T11:19:52;3.97;;;2.47;;
75021;SDS011;63583;49.976;20.182;2023-02-28T11:22:24;10.48;;;2.95;;
75021;SDS011;63583;49.976;20.182;2023-02-28T11:24:55;3.60;;;2.33;;
75021;SDS011;63583;49.976;20.182;2023-02-28T11:29:57;5.80;;;2.47;;
75021;SDS011;63583;49.976;20.182;2023-02-28T11:32:24;3.33;;;1.88;;
75021;SDS011;63583;49.976;20.182;2023-02-28T11:35:10;3.17;;;1.63;;
75021;SDS011;63583;49.976;20.182;2023-02-28T11:37:41;6.70;;;2.58;;
75021;SDS011;63583;49.976;20.182;2023-02-28T11:40:14;4.35;;;1.80;;
75021;SDS011;63583;49.976;20.182;2023-02-28T11:42:45;5.63;;;2.05;;
75021;SDS011;63583;49.976;20.182;2023-02-28T11:45:36;6.40;;;2.17;;
75021;SDS011;63583;49.976;20.182;2023-02-28T11:48:14;4.80;;;2.67;;
75021;SDS011;63583;49.976;20.182;2023-02-28T11:50:50;4.30;;;2.38;;
75021;SDS011;63583;49.976;20.182;2023-02-28T11:53:27;3.70;;;1.70;;
75021;SDS011;63583;49.976;20.182;2023-02-28T11:58:45;5.28;;;1.88;;
75021;SDS011;63583;49.976;20.182;2023-02-28T12:01:18;5.57;;;1.75;;
75021;SDS011;63583;49.976;20.182;2023-02-28T12:11:44;4.10;;;1.88;;
75021;SDS011;63583;49.976;20.182;2023-02-28T12:16:57;3.53;;;2.03;;
75021;SDS011;63583;49.976;20.182;2023-02-28T12:19:25;4.57;;;2.95;;
75021;SDS011;63583;49.976;20.182;2023-02-28T12:22:12;7.43;;;2.55;;
75021;SDS011;63583;49.976;20.182;2023-02-28T12:24:55;2.70;;;1.92;;
75021;SDS011;63583;49.976;20.182;2023-02-28T12:27:37;4.30;;;2.58;;
75021;SDS011;63583;49.976;20.182;2023-02-28T12:32:44;5.57;;;2.10;;
75021;SDS011;63583;49.976;20.182;2023-02-28T12:35:18;2.80;;;1.73;;
75021;SDS011;63583;49.976;20.182;2023-02-28T12:41:24;3.47;;;1.67;;
75021;SDS011;63583;49.976;20.182;2023-02-28T12:43:37;3.67;;;2.30;;
75021;SDS011;63583;49.976;20.182;2023-02-28T12:46:10;4.32;;;2.25;;
75021;SDS011;63583;49.976;20.182;2023-02-28T12:48:41;4.13;;;2.60;;
75021;SDS011;63583;49.976;20.182;2023-02-28T12:51:13;4.50;;;2.25;;
75021;SDS011;63583;49.976;20.182;2023-02-28T12:53:49;7.05;;;3.15;;
75021;SDS011;63583;49.976;20.182;2023-02-28T12:59:01;6.70;;;3.20;;
75021;SDS011;63583;49.976;20.182;2023-02-28T13:09:31;4.97;;;2.47;;
75021;SDS011;63583;49.976;20.182;2023-02-28T13:11:57;5.80;;;2.75;;
75021;SDS011;63583;49.976;20.182;2023-02-28T13:14:36;5.68;;;3.13;;
75021;SDS011;63583;49.976;20.182;2023-02-28T13:19:55;3.45;;;2.40;;
75021;SDS011;63583;49.976;20.182;2023-02-28T13:22:42;7.80;;;2.47;;
75021;SDS011;63583;49.976;20.182;2023-02-28T13:27:48;4.03;;;2.95;;
75021;SDS011;63583;49.976;20.182;2023-02-28T13:38:45;3.45;;;2.05;;
75021;SDS011;63583;49.976;20.182;2023-02-28T13:43:59;6.38;;;2.83;;
75021;SDS011;63583;49.976;20.182;2023-02-28T13:49:19;4.13;;;2.45;;
75021;SDS011;63583;49.976;20.182;2023-02-28T13:51:51;6.60;;;2.97;;
75021;SDS011;63583;49.976;20.182;2023-02-28T13:54:29;4.60;;;2.65;;
75021;SDS011;63583;49.976;20.182;2023-02-28T13:57:12;7.10;;;2.33;;
75021;SDS011;63583;49.976;20.182;2023-02-28T14:05:23;5.03;;;2.58;;
75021;SDS011;63583;49.976;20.182;2023-02-28T14:07:52;5.25;;;2.55;;
75021;SDS011;63583;49.976;20.182;2023-02-28T14:10:22;8.13;;;3.25;;
75021;SDS011;63583;49.976;20.182;2023-02-28T14:21:01;5.25;;;3.13;;
75021;SDS011;63583;49.976;20.182;2023-02-28T14:31:41;7.65;;;3.03;;
75021;SDS011;63583;49.976;20.182;2023-02-28T14:34:17;5.88;;;2.70;;
75021;SDS011;63583;49.976;20.182;2023-02-28T14:36:46;10.88;;;4.00;;
75021;SDS011;63583;49.976;20.182;2023-02-28T14:39:17;4.45;;;2.60;;
75021;SDS011;63583;49.976;20.182;2023-02-28T14:41:47;6.53;;;3.42;;
75021;SDS011;63583;49.976;20.182;2023-02-28T14:44:20;6.32;;;3.22;;
75021;SDS011;63583;49.976;20.182;2023-02-28T14:46:55;3.35;;;1.77;;
75021;SDS011;63583;49.976;20.182;2023-02-28T14:49:26;5.97;;;3.33;;
75021;SDS011;63583;49.976;20.182;2023-02-28T14:54:32;8.15;;;4.00;;
75021;SDS011;63583;49.976;20.182;2023-02-28T14:56:58;7.20;;;3.92;;
75021;SDS011;63583;49.976;20.182;2023-02-28T14:59:25;5.13;;;3.88;;
75021;SDS011;63583;49.976;20.182;2023-02-28T15:01:51;10.30;;;4.68;;
75021;SDS011;63583;49.976;20.182;2023-02-28T15:04:27;8.50;;;3.50;;
75021;SDS011;63583;49.976;20.182;2023-02-28T15:07:08;8.77;;;3.67;;
75021;SDS011;63583;49.976;20.182;2023-02-28T15:09:43;5.80;;;3.35;;
75021;SDS011;63583;49.976;20.182;2023-02-28T15:12:11;6.32;;;3.75;;
75021;SDS011;63583;49.976;20.182;2023-02-28T15:14:39;6.55;;;3.38;;
75021;SDS011;63583;49.976;20.182;2023-02-28T15:17:11;5.82;;;3.60;;
75021;SDS011;63583;49.976;20.182;2023-02-28T15:19:47;8.73;;;3.20;;
75021;SDS011;63583;49.976;20.182;2023-02-28T15:22:17;4.47;;;1.95;;
75021;SDS011;63583;49.976;20.182;2023-02-28T15:24:48;5.90;;;3.00;;
75021;SDS011;63583;49.976;20.182;2023-02-28T15:27:23;8.63;;;3.35;;
75021;SDS011;63583;49.976;20.182;2023-02-28T15:29:56;5.35;;;2.85;;
75021;SDS011;63583;49.976;20.182;2023-02-28T15:32:34;7.50;;;3.53;;
75021;SDS011;63583;49.976;20.182;2023-02-28T15:38:35;13.75;;;5.10;;
75021;SDS011;63583;49.976;20.182;2023-02-28T15:40:55;6.93;;;3.13;;
75021;SDS011;63583;49.976;20.182;2023-02-28T15:43:23;7.68;;;3.50;;
75021;SDS011;63583;49.976;20.182;2023-02-28T15:48:37;8.00;;;3.67;;
75021;SDS011;63583;49.976;20.182;2023-02-28T15:51:06;10.85;;;4.57;;
75021;SDS011;63583;49.976;20.182;2023-02-28T15:53:39;8.88;;;5.57;;
75021;SDS011;63583;49.976;20.182;2023-02-28T15:56:19;8.07;;;4.30;;
75021;SDS011;63583;49.976;20.182;2023-02-28T15:58:48;7.60;;;3.25;;
75021;SDS011;63583;49.976;20.182;2023-02-28T16:01:23;9.70;;;3.35;;
75021;SDS011;63583;49.976;20.182;2023-02-28T16:03:52;5.82;;;2.90;;
75021;SDS011;63583;49.976;20.182;2023-02-28T16:09:16;6.32;;;3.53;;
75021;SDS011;63583;49.976;20.182;2023-02-28T16:11:46;8.48;;;3.10;;
75021;SDS011;63583;49.976;20.182;2023-02-28T16:14:15;7.07;;;3.90;;
75021;SDS011;63583;49.976;20.182;2023-02-28T16:16:45;11.45;;;3.05;;
75021;SDS011;63583;49.976;20.182;2023-02-28T16:19:12;6.22;;;3.40;;
75021;SDS011;63583;49.976;20.182;2023-02-28T16:21:39;9.40;;;5.10;;
75021;SDS011;63583;49.976;20.182;2023-02-28T16:24:04;7.55;;;4.75;;
75021;SDS011;63583;49.976;20.182;2023-02-28T16:26:30;12.27;;;5.68;;
75021;SDS011;63583;49.976;20.182;2023-02-28T16:28:59;10.10;;;5.57;;
75021;SDS011;63583;49.976;20.182;2023-02-28T16:31:27;10.52;;;5.20;;
75021;SDS011;63583;49.976;20.182;2023-02-28T16:33:53;12.35;;;5.22;;
75021;SDS011;63583;49.976;20.182;2023-02-28T16:36:20;15.10;;;5.45;;
75021;SDS011;63583;49.976;20.182;2023-02-28T16:38:48;10.32;;;5.47;;
75021;SDS011;63583;49.976;20.182;2023-02-28T16:41:21;9.45;;;5.13;;
75021;SDS011;63583;49.976;20.182;2023-02-28T16:43:50;11.57;;;5.00;;
75021;SDS011;63583;49.976;20.182;2023-02-28T16:46:18;14.25;;;5.07;;
75021;SDS011;63583;49.976;20.182;2023-02-28T16:48:44;8.45;;;5.72;;
75021;SDS011;63583;49.976;20.182;2023-02-28T16:51:14;9.48;;;6.00;;
75021;SDS011;63583;49.976;20.182;2023-02-28T16:53:41;7.97;;;4.03;;
75021;SDS011;63583;49.976;20.182;2023-02-28T16:56:10;6.93;;;3.72;;
75021;SDS011;63583;49.976;20.182;2023-02-28T16:58:40;10.70;;;5.30;;
75021;SDS011;63583;49.976;20.182;2023-02-28T17:01:06;5.72;;;3.60;;
75021;SDS011;63583;49.976;20.182;2023-02-28T17:03:31;8.40;;;3.85;;
75021;SDS011;63583;49.976;20.182;2023-02-28T17:05:57;6.20;;;2.58;;
75021;SDS011;63583;49.976;20.182;2023-02-28T17:08:23;6.80;;;3.45;;